createdAt,value
2022-08-04T00:00:45.427Z,79.93
2022-08-04T00:03:20.780Z,80.38
2022-08-04T00:06:00.758Z,80.38
2022-08-04T00:08:40.649Z,80.96
2022-08-04T00:11:15.368Z,80.84
2022-08-04T00:13:58.034Z,81.04
2022-08-04T00:16:37.800Z,81.76
2022-08-04T00:19:11.505Z,81.87
2022-08-04T00:21:47.730Z,82.12
2022-08-04T00:24:17.398Z,82.33
2022-08-04T00:26:45.990Z,82.36
2022-08-04T00:29:14.113Z,82.62
2022-08-04T00:31:57.201Z,82.85
2022-08-04T00:34:27.903Z,83.14
2022-08-04T00:36:58.384Z,83.42
2022-08-04T00:39:27.560Z,83.64
2022-08-04T00:42:24.337Z,84.81
2022-08-04T00:45:08.745Z,84.68
2022-08-04T00:47:49.102Z,84.56
2022-08-04T00:50:26.038Z,84.77
2022-08-04T00:53:07.814Z,85.10
2022-08-04T00:55:58.903Z,85.64
2022-08-04T00:58:40.799Z,85.50
2022-08-04T01:01:17.874Z,85.67
2022-08-04T01:04:04.121Z,86.20
2022-08-04T01:06:56.511Z,86.28
2022-08-04T01:09:45.514Z,86.43
2022-08-04T01:12:37.953Z,86.76
2022-08-04T01:15:08.149Z,86.45
2022-08-04T01:17:48.597Z,86.96
2022-08-04T01:20:22.486Z,87.11
2022-08-04T01:23:46.840Z,87.70
2022-08-04T01:26:57.601Z,87.65
2022-08-04T01:29:38.247Z,87.47
2022-08-04T01:32:26.096Z,87.66
2022-08-04T01:35:01.949Z,87.94
2022-08-04T01:37:43.585Z,88.45
2022-08-04T01:40:15.459Z,88.56
2022-08-04T01:42:46.170Z,88.52
2022-08-04T01:45:15.928Z,88.79
2022-08-04T01:47:50.849Z,88.94
2022-08-04T01:50:19.070Z,89.20
2022-08-04T01:52:50.979Z,89.48
2022-08-04T01:55:19.906Z,89.41
2022-08-04T01:57:50.907Z,89.76
2022-08-04T02:00:22.726Z,90.02
2022-08-04T02:02:52.053Z,90.11
2022-08-04T02:05:22.044Z,90.12
2022-08-04T02:08:06.373Z,90.54
2022-08-04T02:10:50.130Z,90.51
2022-08-04T02:13:24.818Z,90.62
2022-08-04T02:16:02.767Z,90.83
2022-08-04T02:18:33.575Z,90.84
2022-08-04T02:21:02.911Z,90.92
2022-08-04T02:23:36.188Z,91.01
2022-08-04T02:26:06.557Z,91.51
2022-08-04T02:28:44.562Z,91.64
2022-08-04T02:31:28.824Z,91.97
2022-08-04T02:34:07.433Z,91.92
2022-08-04T02:36:38.274Z,92.05
2022-08-04T02:39:07.816Z,92.02
2022-08-04T02:41:37.187Z,92.30
2022-08-04T02:44:07.516Z,92.56
2022-08-04T02:46:39.402Z,92.97
2022-08-04T02:49:09.394Z,92.83
2022-08-04T02:51:39.223Z,92.85
2022-08-04T02:54:08.533Z,92.98
2022-08-04T02:56:38.921Z,93.12
2022-08-04T02:59:10.502Z,93.17
2022-08-04T03:01:58.062Z,93.23
2022-08-04T03:04:52.152Z,93.22
2022-08-04T03:07:57.327Z,93.45
2022-08-04T03:11:18.000Z,93.22
2022-08-04T03:14:22.389Z,93.09
2022-08-04T03:17:17.796Z,93.13
2022-08-04T03:20:09.977Z,93.29
2022-08-04T03:23:13.417Z,93.29
2022-08-04T03:26:13.497Z,93.10
2022-08-04T03:29:12.229Z,92.93
2022-08-04T03:32:13.861Z,92.74
2022-08-04T03:34:59.377Z,92.46
2022-08-04T03:37:48.058Z,92.52
2022-08-04T03:40:35.728Z,92.14
2022-08-04T03:43:58.366Z,92.10
2022-08-04T03:47:13.341Z,91.74
2022-08-04T03:50:10.971Z,91.35
2022-08-04T03:53:10.537Z,91.23
2022-08-04T03:55:49.963Z,91.12
2022-08-04T03:58:41.005Z,91.27
2022-08-04T04:01:22.310Z,91.09
2022-08-04T04:04:16.063Z,91.21
2022-08-04T04:07:06.782Z,91.00
2022-08-04T04:10:06.377Z,90.98
2022-08-04T04:13:11.061Z,91.04
2022-08-04T04:16:00.400Z,91.13
2022-08-04T04:18:59.983Z,91.11
2022-08-04T04:21:50.463Z,90.97
2022-08-04T04:24:34.569Z,90.64
2022-08-04T04:27:16.900Z,90.63
2022-08-04T04:30:04.184Z,90.71
2022-08-04T04:32:45.482Z,90.54
2022-08-04T04:35:24.150Z,90.12
2022-08-04T04:38:14.553Z,89.97
2022-08-04T04:40:57.089Z,89.66
2022-08-04T04:43:52.034Z,89.48
2022-08-04T04:46:33.750Z,88.97
2022-08-04T04:49:12.689Z,89.20
2022-08-04T04:51:49.548Z,89.17
2022-08-04T04:54:27.432Z,88.54
2022-08-04T04:57:04.545Z,88.09
2022-08-04T04:59:35.902Z,88.18
2022-08-04T05:02:29.217Z,87.98
2022-08-04T05:05:24.222Z,87.65
2022-08-04T05:08:45.467Z,87.56
2022-08-04T05:11:35.169Z,88.01
2022-08-04T05:14:39.070Z,87.74
2022-08-04T05:17:03.060Z,87.49
2022-08-04T05:19:44.235Z,87.03
2022-08-04T05:22:23.563Z,87.08
2022-08-04T05:25:01.731Z,87.03
2022-08-04T05:27:40.033Z,86.82
2022-08-04T05:30:09.997Z,87.05
2022-08-04T05:32:46.993Z,87.08
2022-08-04T05:35:37.318Z,87.03
2022-08-04T05:38:15.655Z,87.01
2022-08-04T05:40:45.655Z,86.96
2022-08-04T05:43:16.092Z,87.20
2022-08-04T05:45:48.374Z,87.35
2022-08-04T05:48:17.726Z,87.63
2022-08-04T05:50:47.426Z,88.07
2022-08-04T05:53:19.148Z,87.79
2022-08-04T05:55:59.578Z,87.46
2022-08-04T05:58:30.610Z,86.87
2022-08-04T06:01:00.785Z,86.69
2022-08-04T06:03:30.917Z,85.99
2022-08-04T06:06:00.003Z,85.68
2022-08-04T06:08:30.728Z,85.37
2022-08-04T06:11:03.468Z,84.98
2022-08-04T06:13:48.574Z,84.70
2022-08-04T06:16:29.666Z,84.54
2022-08-04T06:20:03.493Z,84.57
2022-08-04T06:21:51.870Z,84.63
2022-08-04T06:24:26.050Z,84.65
2022-08-04T06:26:55.122Z,84.23
2022-08-04T06:29:28.409Z,83.70
2022-08-04T06:32:29.912Z,83.43
2022-08-04T06:34:53.359Z,83.22
2022-08-04T06:37:41.000Z,82.83
2022-08-04T06:40:29.538Z,81.49
2022-08-04T06:42:59.900Z,79.73
2022-08-04T06:45:28.454Z,79.47
2022-08-04T06:47:58.156Z,77.60
2022-08-04T06:51:24.503Z,77.11
2022-08-04T06:53:15.320Z,76.76
2022-08-04T06:55:47.683Z,75.72
2022-08-04T06:58:17.527Z,75.21
2022-08-04T07:00:48.197Z,74.88
2022-08-04T07:03:19.367Z,73.39
2022-08-04T07:05:48.630Z,73.36
2022-08-04T07:08:17.035Z,73.15
2022-08-04T07:10:47.047Z,72.95
2022-08-04T07:13:16.889Z,72.44
2022-08-04T07:15:46.636Z,72.12
2022-08-04T07:18:14.916Z,72.23
2022-08-04T07:20:44.518Z,72.25
2022-08-04T07:23:17.460Z,71.97
2022-08-04T07:25:59.911Z,71.02
2022-08-04T07:28:40.957Z,70.70
2022-08-04T07:31:31.902Z,70.15
2022-08-04T07:34:21.334Z,68.78
2022-08-04T07:36:53.266Z,67.10
2022-08-04T07:39:28.516Z,64.85
2022-08-04T07:42:01.492Z,63.76
2022-08-04T07:44:31.208Z,61.37
2022-08-04T07:47:00.121Z,60.18
2022-08-04T07:49:55.964Z,59.17
2022-08-04T07:52:17.706Z,58.30
2022-08-04T07:54:46.369Z,58.38
2022-08-04T07:57:20.974Z,57.12
2022-08-04T08:00:08.804Z,57.51
2022-08-04T08:02:38.870Z,56.99
2022-08-04T08:05:09.021Z,55.93
2022-08-04T08:07:37.176Z,54.91
2022-08-04T08:10:19.930Z,55.46
2022-08-04T08:12:52.140Z,54.99
2022-08-04T08:15:21.716Z,54.03
2022-08-04T08:17:59.164Z,54.58
2022-08-04T08:20:30.733Z,55.46
2022-08-04T08:22:59.187Z,55.91
2022-08-04T08:25:27.283Z,55.82
2022-08-04T08:27:56.945Z,55.57
2022-08-04T08:30:31.857Z,54.33
2022-08-04T08:33:03.779Z,54.27
2022-08-04T08:35:54.127Z,54.99
2022-08-04T08:38:39.980Z,55.78
2022-08-04T08:41:34.926Z,56.58
2022-08-04T08:44:51.407Z,56.86
2022-08-04T08:48:06.291Z,58.08
2022-08-04T08:50:45.426Z,58.87
2022-08-04T08:53:29.019Z,57.32
2022-08-04T08:56:15.128Z,56.99
2022-08-04T08:59:00.781Z,56.58
2022-08-04T09:01:54.272Z,57.59
2022-08-04T09:04:57.126Z,56.00
2022-08-04T09:07:51.548Z,56.51
2022-08-04T09:10:27.154Z,55.42
2022-08-04T09:13:03.708Z,55.46
2022-08-04T09:15:37.457Z,53.08
2022-08-04T09:18:14.775Z,52.72
2022-08-04T09:20:49.909Z,51.77
2022-08-04T09:23:25.351Z,50.67
2022-08-04T09:26:07.449Z,50.50
2022-08-04T09:28:54.631Z,50.33
2022-08-04T09:31:51.700Z,50.04
2022-08-04T09:34:27.969Z,49.45
2022-08-04T09:37:06.017Z,48.24
2022-08-04T09:39:41.402Z,48.40
2022-08-04T09:42:26.176Z,47.92
2022-08-04T09:45:06.166Z,46.61
2022-08-04T09:47:48.766Z,46.08
2022-08-04T09:50:31.171Z,44.80
2022-08-04T09:53:14.488Z,45.95
2022-08-04T09:55:56.355Z,44.59
2022-08-04T09:58:40.209Z,45.78
2022-08-04T10:01:11.440Z,43.99
2022-08-04T10:03:42.767Z,43.35
2022-08-04T10:06:36.986Z,41.80
2022-08-04T10:09:18.356Z,42.72
2022-08-04T10:11:56.953Z,41.79
2022-08-04T10:14:41.754Z,40.81
2022-08-04T10:17:24.385Z,41.33
2022-08-04T10:20:04.504Z,41.25
2022-08-04T10:22:55.941Z,41.21
2022-08-04T10:26:05.212Z,41.56
2022-08-04T10:28:33.523Z,40.49
2022-08-04T10:31:08.171Z,40.18
2022-08-04T10:33:43.985Z,39.85
2022-08-04T10:36:17.544Z,40.18
2022-08-04T10:38:57.604Z,40.62
2022-08-04T10:41:31.602Z,40.88
2022-08-04T10:44:10.436Z,40.31
2022-08-04T10:46:44.488Z,40.27
2022-08-04T10:49:24.164Z,39.52
2022-08-04T10:51:57.777Z,39.87
2022-08-04T10:54:34.576Z,40.42
2022-08-04T10:57:08.706Z,40.46
2022-08-04T10:59:44.687Z,39.45
2022-08-04T11:02:27.226Z,39.52
2022-08-04T11:05:18.142Z,39.44
2022-08-04T11:07:51.611Z,39.29
2022-08-04T11:10:25.733Z,40.09
2022-08-04T11:12:59.052Z,39.67
2022-08-04T11:15:32.040Z,39.41
2022-08-04T11:18:06.873Z,39.90
2022-08-04T11:20:53.791Z,40.20
2022-08-04T11:23:28.066Z,40.09
2022-08-04T11:26:02.969Z,39.34
2022-08-04T11:28:44.968Z,39.44
2022-08-04T11:31:19.305Z,40.24
2022-08-04T11:33:56.581Z,39.64
2022-08-04T11:36:33.570Z,38.80
2022-08-04T11:39:08.436Z,38.67
2022-08-04T11:41:48.282Z,38.62
2022-08-04T11:44:27.647Z,39.15
2022-08-04T11:47:00.626Z,39.81
2022-08-04T11:49:57.082Z,38.46
2022-08-04T11:52:25.397Z,38.37
2022-08-04T11:54:54.683Z,38.51
2022-08-04T11:57:35.483Z,38.21
2022-08-04T12:00:10.368Z,38.53
2022-08-04T12:02:52.070Z,38.42
2022-08-04T12:05:36.036Z,38.25
2022-08-04T12:08:21.145Z,37.52
2022-08-04T12:11:10.595Z,37.45
2022-08-04T12:13:47.310Z,38.24
2022-08-04T12:16:19.451Z,37.45
2022-08-04T12:18:53.782Z,37.18
2022-08-04T12:21:29.324Z,38.36
2022-08-04T12:24:02.917Z,37.30
2022-08-04T12:26:38.602Z,37.00
2022-08-04T12:29:11.874Z,36.35
2022-08-04T12:31:46.690Z,35.98
2022-08-04T12:34:18.704Z,35.97
2022-08-04T12:36:55.754Z,36.29
2022-08-04T12:39:27.362Z,37.01
2022-08-04T12:42:02.974Z,36.96
2022-08-04T12:44:38.511Z,39.34
2022-08-04T12:47:27.131Z,36.31
2022-08-04T12:50:02.030Z,34.84
2022-08-04T12:52:59.081Z,34.91
2022-08-04T12:55:22.235Z,34.09
2022-08-04T12:57:52.349Z,34.24
2022-08-04T13:00:34.213Z,34.25
2022-08-04T13:03:10.074Z,33.98
2022-08-04T13:05:40.099Z,33.87
2022-08-04T13:08:09.795Z,33.12
2022-08-04T13:10:40.792Z,34.11
2022-08-04T13:13:16.714Z,34.53
2022-08-04T13:15:57.773Z,34.15
2022-08-04T13:18:30.367Z,33.61
2022-08-04T13:21:19.645Z,33.00
2022-08-04T13:24:09.950Z,34.28
2022-08-04T13:26:55.168Z,33.68
2022-08-04T13:29:59.004Z,31.63
2022-08-04T13:32:26.500Z,31.09
2022-08-04T13:34:57.150Z,32.96
2022-08-04T13:37:27.895Z,31.69
2022-08-04T13:39:57.283Z,33.43
2022-08-04T13:42:28.365Z,30.92
2022-08-04T13:45:00.615Z,31.18
2022-08-04T13:47:33.608Z,30.37
2022-08-04T13:50:16.461Z,30.23
2022-08-04T13:52:45.917Z,30.39
2022-08-04T13:55:23.578Z,30.83
2022-08-04T13:57:56.033Z,33.15
2022-08-04T14:00:29.746Z,32.64
2022-08-04T14:03:23.244Z,32.90
2022-08-04T14:06:10.869Z,33.31
2022-08-04T14:08:48.088Z,33.13
2022-08-04T14:12:10.044Z,32.45
2022-08-04T14:14:15.418Z,33.89
2022-08-04T14:16:57.453Z,34.64
2022-08-04T14:19:31.070Z,35.54
2022-08-04T14:22:04.901Z,36.20
2022-08-04T14:24:33.321Z,36.82
2022-08-04T14:27:01.743Z,37.39
2022-08-04T14:29:38.792Z,37.76
2022-08-04T14:32:14.106Z,38.66
2022-08-04T14:34:46.245Z,39.33
2022-08-04T14:37:19.436Z,39.43
2022-08-04T14:40:19.113Z,38.26
2022-08-04T14:42:55.711Z,37.40
2022-08-04T14:45:35.916Z,37.61
2022-08-04T14:48:08.131Z,37.85
2022-08-04T14:50:40.116Z,38.71
2022-08-04T14:53:11.086Z,40.04
2022-08-04T14:55:41.196Z,40.66
2022-08-04T14:58:36.458Z,42.13
2022-08-04T15:01:09.710Z,42.78
2022-08-04T15:03:49.569Z,43.55
2022-08-04T15:06:23.198Z,44.65
2022-08-04T15:08:52.977Z,44.58
2022-08-04T15:11:23.604Z,44.54
2022-08-04T15:13:52.350Z,44.96
2022-08-04T15:16:20.665Z,45.39
2022-08-04T15:18:49.431Z,45.30
2022-08-04T15:21:18.262Z,45.85
2022-08-04T15:23:47.676Z,46.03
2022-08-04T15:26:18.617Z,46.38
2022-08-04T15:28:51.597Z,47.75
2022-08-04T15:32:07.281Z,47.13
2022-08-04T15:34:11.488Z,46.48
2022-08-04T15:36:56.363Z,45.16
2022-08-04T15:39:37.061Z,43.31
2022-08-04T15:42:21.605Z,42.36
2022-08-04T15:45:20.787Z,40.97
2022-08-04T15:48:26.200Z,40.55
2022-08-04T15:51:28.332Z,40.37
2022-08-04T15:54:32.189Z,40.16
2022-08-04T15:57:03.769Z,39.56
2022-08-04T16:00:15.103Z,38.39
2022-08-04T16:02:44.471Z,37.91
2022-08-04T16:05:36.920Z,38.06
2022-08-04T16:08:13.421Z,38.04
2022-08-04T16:10:43.302Z,37.88
2022-08-04T16:13:15.086Z,37.55
2022-08-04T16:15:47.168Z,37.90
2022-08-04T16:18:26.123Z,37.51
2022-08-04T16:20:58.125Z,37.92
2022-08-04T16:24:02.199Z,38.48
2022-08-04T16:26:55.157Z,38.51
2022-08-04T16:29:40.261Z,38.60
2022-08-04T16:32:13.805Z,38.49
2022-08-04T16:34:49.465Z,38.98
2022-08-04T16:37:24.046Z,38.54
2022-08-04T16:40:28.610Z,39.08
2022-08-04T16:43:04.132Z,38.95
2022-08-04T16:45:51.197Z,39.77
2022-08-04T16:48:20.510Z,39.86
2022-08-04T16:51:04.660Z,40.94
2022-08-04T16:53:53.650Z,40.90
2022-08-04T16:56:32.936Z,41.45
2022-08-04T16:59:07.719Z,41.94
2022-08-04T17:01:38.226Z,42.66
2022-08-04T17:04:07.363Z,43.98
2022-08-04T17:06:37.692Z,44.93
2022-08-04T17:09:07.202Z,46.02
2022-08-04T17:11:35.288Z,46.37
2022-08-04T17:14:05.776Z,46.66
2022-08-04T17:16:38.391Z,47.32
2022-08-04T17:19:24.153Z,47.49
2022-08-04T17:22:02.184Z,48.09
2022-08-04T17:24:31.469Z,48.21
2022-08-04T17:27:00.178Z,49.07
2022-08-04T17:29:42.209Z,48.98
2022-08-04T17:32:18.799Z,49.75
2022-08-04T17:34:50.522Z,50.59
2022-08-04T17:37:38.181Z,50.61
2022-08-04T17:40:12.178Z,51.49
2022-08-04T17:42:42.036Z,52.17
2022-08-04T17:48:03.573Z,53.13
2022-08-04T17:50:36.013Z,53.92
2022-08-04T17:53:11.577Z,53.92
2022-08-04T17:55:40.971Z,54.15
2022-08-04T17:58:24.135Z,55.22
2022-08-04T18:01:23.109Z,55.66
2022-08-04T18:03:58.254Z,56.19
2022-08-04T18:06:26.358Z,56.57
2022-08-04T18:08:58.967Z,57.24
2022-08-04T18:11:53.674Z,57.94
2022-08-04T18:14:25.878Z,58.34
2022-08-04T18:16:56.699Z,58.98
2022-08-04T18:19:26.142Z,59.61
2022-08-04T18:22:01.013Z,59.85
2022-08-04T18:24:34.637Z,60.45
2022-08-04T18:27:19.310Z,60.99
2022-08-04T18:30:14.539Z,61.30
2022-08-04T18:32:36.351Z,61.49
2022-08-04T18:35:07.251Z,62.17
2022-08-04T18:38:05.865Z,62.51
2022-08-04T18:40:30.231Z,62.45
2022-08-04T18:43:03.651Z,62.60
2022-08-04T18:48:20.985Z,63.35
2022-08-04T18:51:09.487Z,63.36
2022-08-04T18:53:38.617Z,63.90
2022-08-04T18:56:19.922Z,64.05
2022-08-04T18:58:57.442Z,64.01
2022-08-04T19:01:29.613Z,64.38
2022-08-04T19:03:58.566Z,64.21
2022-08-04T19:06:28.309Z,64.84
2022-08-04T19:08:58.047Z,64.89
2022-08-04T19:11:37.904Z,64.49
2022-08-04T19:14:14.753Z,64.57
2022-08-04T19:16:46.135Z,64.37
2022-08-04T19:19:15.717Z,64.16
2022-08-04T19:22:00.918Z,63.99
2022-08-04T19:24:34.326Z,63.92
2022-08-04T19:29:52.763Z,63.60
2022-08-04T19:32:22.490Z,63.64
2022-08-04T19:34:52.139Z,63.81
2022-08-04T19:37:58.501Z,63.59
2022-08-04T19:40:12.968Z,63.51
2022-08-04T19:42:42.473Z,63.41
2022-08-04T19:45:15.906Z,63.42
2022-08-04T19:48:18.297Z,63.63
2022-08-04T19:50:32.346Z,63.47
2022-08-04T19:53:04.172Z,63.07
2022-08-04T19:55:49.708Z,63.05
2022-08-04T19:58:21.521Z,62.92
2022-08-04T20:00:53.861Z,63.08
2022-08-04T20:04:08.403Z,62.81
2022-08-04T20:06:11.792Z,62.95
2022-08-04T20:08:48.313Z,62.96
2022-08-04T20:11:17.362Z,62.78
2022-08-04T20:13:54.630Z,63.15
2022-08-04T20:16:30.003Z,62.97
2022-08-04T20:19:03.269Z,63.34
2022-08-04T20:21:55.641Z,63.15
2022-08-04T20:24:36.912Z,63.63
2022-08-04T20:27:21.697Z,63.92
2022-08-04T20:29:51.689Z,64.30
2022-08-04T20:32:26.002Z,64.38
2022-08-04T20:34:55.916Z,64.72
2022-08-04T20:37:25.975Z,65.08
2022-08-04T20:40:15.414Z,64.87
2022-08-04T20:42:44.986Z,65.23
2022-08-04T20:45:16.241Z,65.40
2022-08-04T20:47:53.307Z,65.45
2022-08-04T20:50:29.798Z,65.97
2022-08-04T20:52:58.708Z,66.20
2022-08-04T20:55:29.866Z,66.11
2022-08-04T20:58:02.566Z,66.13
2022-08-04T21:00:31.929Z,66.62
2022-08-04T21:03:00.291Z,66.97
2022-08-04T21:05:28.427Z,67.18
2022-08-04T21:07:57.626Z,67.21
2022-08-04T21:10:27.388Z,67.96
2022-08-04T21:12:55.826Z,68.21
2022-08-04T21:15:50.839Z,68.73
2022-08-04T21:18:14.659Z,68.94
2022-08-04T21:20:48.232Z,68.90
2022-08-04T21:25:49.846Z,70.02
2022-08-04T21:31:11.089Z,70.11
2022-08-04T21:33:52.181Z,70.22
2022-08-04T21:36:20.718Z,70.49
2022-08-04T21:38:51.490Z,70.72
2022-08-04T21:41:25.237Z,71.06
2022-08-04T21:43:55.739Z,71.33
2022-08-04T21:46:24.346Z,71.37
2022-08-04T21:48:52.506Z,71.51
2022-08-04T21:51:58.011Z,72.02
2022-08-04T21:54:16.855Z,72.12
2022-08-04T21:56:50.721Z,72.15
2022-08-04T21:59:23.774Z,72.29
2022-08-04T22:01:56.535Z,72.38
2022-08-04T22:04:24.928Z,72.78
2022-08-04T22:06:53.043Z,73.15
2022-08-04T22:09:22.378Z,73.06
2022-08-04T22:11:52.465Z,72.95
2022-08-04T22:14:29.427Z,73.45
2022-08-04T22:17:02.643Z,73.93
2022-08-04T22:19:50.298Z,73.65
2022-08-04T22:22:26.274Z,73.95
2022-08-04T22:24:58.882Z,73.67
2022-08-04T22:27:47.916Z,73.91
2022-08-04T22:30:23.952Z,73.84
2022-08-04T22:32:52.033Z,74.02
2022-08-04T22:35:42.892Z,74.36
2022-08-04T22:38:25.306Z,74.73
2022-08-04T22:40:59.716Z,74.96
2022-08-04T22:43:33.676Z,75.36
2022-08-04T22:46:05.383Z,75.30
2022-08-04T22:48:35.433Z,75.48
2022-08-04T22:51:03.931Z,75.38
2022-08-04T22:53:32.489Z,75.90
2022-08-04T22:56:10.291Z,75.79
2022-08-04T22:58:45.509Z,76.24
2022-08-04T23:01:19.412Z,76.22
2022-08-04T23:03:55.467Z,76.09
2022-08-04T23:06:25.685Z,76.58
2022-08-04T23:08:59.447Z,76.63
2022-08-04T23:11:34.397Z,76.87
2022-08-04T23:14:05.493Z,77.54
2022-08-04T23:16:40.814Z,77.56
2022-08-04T23:19:15.203Z,77.74
2022-08-04T23:21:47.288Z,77.84
2022-08-04T23:24:16.001Z,78.27
2022-08-04T23:26:44.133Z,78.29
2022-08-04T23:29:13.926Z,78.59
2022-08-04T23:31:59.099Z,78.63
2022-08-04T23:34:29.108Z,78.75
2022-08-04T23:36:59.273Z,78.75
2022-08-04T23:40:03.756Z,79.18
2022-08-04T23:42:21.012Z,79.22
2022-08-04T23:44:50.958Z,79.65
2022-08-04T23:48:16.563Z,80.01
2022-08-04T23:50:08.477Z,79.90
2022-08-04T23:52:37.298Z,79.94
2022-08-04T23:55:07.598Z,80.46
2022-08-04T23:58:06.503Z,80.58
